createdAt,value
2023-04-30T00:01:28.924Z,1.20
2023-04-30T00:03:56.368Z,1.30
2023-04-30T00:06:24.423Z,1.20
2023-04-30T00:08:52.699Z,1.40
2023-04-30T00:11:19.818Z,1.30
2023-04-30T00:13:47.006Z,1.10
2023-04-30T00:16:14.261Z,1.30
2023-04-30T00:18:41.431Z,2.10
2023-04-30T00:21:08.715Z,1.80
2023-04-30T00:23:36.484Z,1.70
2023-04-30T00:26:04.251Z,1.70
2023-04-30T00:28:31.431Z,1.90
2023-04-30T00:30:58.508Z,2.30
2023-04-30T00:33:25.658Z,2.60
2023-04-30T00:35:52.742Z,2.40
2023-04-30T00:38:19.789Z,2.60
2023-04-30T00:40:47.422Z,3.00
2023-04-30T00:43:14.935Z,3.00
2023-04-30T00:45:42.224Z,3.20
2023-04-30T00:48:09.911Z,3.30
2023-04-30T00:50:38.325Z,3.30
2023-04-30T00:53:06.594Z,3.90
2023-04-30T00:55:33.759Z,4.80
2023-04-30T00:58:02.022Z,6.00
2023-04-30T01:00:30.164Z,6.40
2023-04-30T01:02:57.700Z,6.50
2023-04-30T01:05:26.150Z,7.80
2023-04-30T01:07:56.389Z,7.50
2023-04-30T01:10:30.703Z,7.70
2023-04-30T01:13:18.232Z,7.80
2023-04-30T01:16:03.288Z,9.00
2023-04-30T01:18:37.900Z,8.60
2023-04-30T01:21:06.178Z,9.80
2023-04-30T01:23:36.039Z,10.10
2023-04-30T01:26:40.466Z,10.40
2023-04-30T01:29:08.822Z,10.60
2023-04-30T01:31:36.307Z,11.30
2023-04-30T01:34:03.597Z,10.30
2023-04-30T01:36:39.063Z,11.00
2023-04-30T01:39:12.388Z,11.30
2023-04-30T01:41:56.870Z,11.90
2023-04-30T01:44:41.278Z,10.00
2023-04-30T01:47:19.202Z,11.10
2023-04-30T01:50:22.361Z,12.00
2023-04-30T01:52:57.432Z,13.00
2023-04-30T01:55:41.664Z,12.00
2023-04-30T01:58:15.468Z,12.30
2023-04-30T02:00:42.936Z,12.10
2023-04-30T02:03:12.577Z,11.40
2023-04-30T02:05:40.139Z,12.30
2023-04-30T02:08:07.578Z,11.20
2023-04-30T02:10:34.635Z,13.20
2023-04-30T02:13:03.046Z,12.30
2023-04-30T02:15:30.594Z,12.60
2023-04-30T02:17:57.793Z,12.70
2023-04-30T02:20:25.493Z,14.00
2023-04-30T02:22:53.118Z,13.00
2023-04-30T02:25:20.237Z,12.80
2023-04-30T02:27:47.736Z,12.70
2023-04-30T02:30:14.819Z,13.00
2023-04-30T02:32:42.025Z,11.10
2023-04-30T02:35:10.167Z,13.00
2023-04-30T02:37:37.298Z,12.40
2023-04-30T02:40:05.319Z,12.20
2023-04-30T02:42:32.343Z,12.30
2023-04-30T02:44:59.557Z,13.30
2023-04-30T02:47:26.683Z,14.30
2023-04-30T02:49:54.563Z,13.10
2023-04-30T02:52:23.030Z,12.70
2023-04-30T02:54:50.223Z,12.60
2023-04-30T02:57:17.328Z,12.00
2023-04-30T02:59:46.408Z,11.50
2023-04-30T03:02:14.470Z,12.40
2023-04-30T03:04:41.705Z,11.90
2023-04-30T03:07:08.919Z,12.60
2023-04-30T03:09:36.915Z,12.70
2023-04-30T03:12:04.293Z,11.60
2023-04-30T03:14:31.556Z,13.10
2023-04-30T03:16:59.144Z,12.30
2023-04-30T03:19:26.193Z,12.00
2023-04-30T03:21:53.357Z,11.70
2023-04-30T03:24:20.813Z,13.50
2023-04-30T03:26:48.087Z,13.60
2023-04-30T03:29:15.233Z,13.50
2023-04-30T03:31:43.003Z,13.70
2023-04-30T03:34:10.499Z,13.10
2023-04-30T03:36:37.851Z,13.20
2023-04-30T03:39:05.473Z,13.10
2023-04-30T03:41:32.554Z,13.50
2023-04-30T03:44:00.271Z,12.20
2023-04-30T03:46:27.507Z,12.40
2023-04-30T03:48:54.869Z,12.40
2023-04-30T03:51:22.094Z,12.80
2023-04-30T03:53:49.160Z,12.60
2023-04-30T03:56:16.384Z,13.20
2023-04-30T03:58:43.541Z,12.70
2023-04-30T04:01:10.833Z,12.30
2023-04-30T04:03:38.486Z,13.60
2023-04-30T04:06:06.253Z,13.10
2023-04-30T04:08:34.235Z,12.40
2023-04-30T04:11:01.353Z,12.60
2023-04-30T04:13:28.424Z,12.80
2023-04-30T04:15:55.716Z,11.50
2023-04-30T04:18:23.419Z,12.10
2023-04-30T04:20:51.189Z,12.20
2023-04-30T04:23:18.639Z,11.90
2023-04-30T04:25:49.779Z,11.90
2023-04-30T04:28:17.387Z,11.60
2023-04-30T04:30:44.809Z,10.80
2023-04-30T04:33:11.988Z,13.20
2023-04-30T04:35:39.168Z,11.60
2023-04-30T04:38:07.722Z,11.40
2023-04-30T04:40:35.714Z,12.00
2023-04-30T04:43:03.278Z,11.50
2023-04-30T04:45:31.760Z,11.40
2023-04-30T04:47:59.035Z,11.90
2023-04-30T04:50:27.623Z,10.80
2023-04-30T04:52:54.740Z,10.40
2023-04-30T04:55:21.795Z,10.80
2023-04-30T04:57:49.074Z,11.90
2023-04-30T05:00:18.200Z,9.20
2023-04-30T05:02:45.465Z,9.50
2023-04-30T05:05:12.642Z,8.60
2023-04-30T05:07:40.302Z,8.60
2023-04-30T05:10:09.193Z,7.40
2023-04-30T05:12:36.340Z,6.10
2023-04-30T05:15:04.819Z,6.20
2023-04-30T05:17:31.922Z,6.30
2023-04-30T05:19:59.197Z,5.80
2023-04-30T05:22:26.318Z,6.20
2023-04-30T05:24:53.458Z,6.50
2023-04-30T05:27:21.347Z,5.30
2023-04-30T05:29:48.436Z,4.30
2023-04-30T05:32:16.448Z,3.90
2023-04-30T05:34:43.581Z,4.40
2023-04-30T05:37:10.758Z,3.70
2023-04-30T05:39:37.842Z,4.60
2023-04-30T05:42:05.488Z,6.10
2023-04-30T05:44:32.706Z,6.80
2023-04-30T05:46:59.795Z,5.20
2023-04-30T05:49:27.898Z,4.60
2023-04-30T05:51:55.051Z,4.50
2023-04-30T05:54:22.171Z,4.20
2023-04-30T05:56:49.536Z,4.60
2023-04-30T05:59:16.799Z,4.70
2023-04-30T06:01:44.610Z,7.40
2023-04-30T06:04:12.153Z,5.90
2023-04-30T06:06:39.286Z,6.10
2023-04-30T06:09:06.624Z,7.80
2023-04-30T06:11:34.077Z,4.50
2023-04-30T06:14:01.345Z,3.70
2023-04-30T06:16:29.533Z,3.30
2023-04-30T06:18:56.627Z,3.10
2023-04-30T06:21:26.349Z,3.00
2023-04-30T06:23:53.725Z,3.10
2023-04-30T06:26:21.061Z,3.10
2023-04-30T06:28:48.577Z,3.10
2023-04-30T06:31:15.858Z,3.40
2023-04-30T06:33:42.949Z,4.00
2023-04-30T06:36:10.097Z,4.10
2023-04-30T06:38:37.202Z,3.60
2023-04-30T06:41:04.281Z,4.40
2023-04-30T06:43:31.371Z,4.00
2023-04-30T06:45:58.455Z,5.10
2023-04-30T06:48:26.277Z,4.10
2023-04-30T06:50:53.865Z,5.90
2023-04-30T06:53:21.655Z,5.40
2023-04-30T06:55:49.597Z,5.30
2023-04-30T06:58:16.759Z,5.80
2023-04-30T07:00:43.918Z,5.50
2023-04-30T07:03:11.153Z,5.70
2023-04-30T07:05:38.480Z,13.10
2023-04-30T07:08:07.226Z,10.10
2023-04-30T07:10:34.691Z,5.30
2023-04-30T07:13:01.751Z,5.00
2023-04-30T07:15:28.825Z,4.00
2023-04-30T07:17:58.092Z,4.70
2023-04-30T07:20:25.388Z,4.60
2023-04-30T07:22:52.727Z,5.50
2023-04-30T07:25:19.996Z,4.60
2023-04-30T07:27:47.232Z,5.50
2023-04-30T07:30:14.302Z,3.80
2023-04-30T07:32:41.844Z,4.00
2023-04-30T07:35:09.466Z,4.30
2023-04-30T07:37:39.090Z,5.50
2023-04-30T07:40:15.369Z,5.90
2023-04-30T07:42:46.594Z,6.10
2023-04-30T07:45:14.321Z,4.70
2023-04-30T07:47:41.484Z,4.60
2023-04-30T07:50:09.134Z,5.10
2023-04-30T07:52:36.688Z,5.30
2023-04-30T07:55:03.932Z,4.90
2023-04-30T07:57:31.425Z,4.70
2023-04-30T07:59:58.669Z,4.40
2023-04-30T08:02:26.422Z,5.20
2023-04-30T08:04:53.739Z,6.40
2023-04-30T08:07:22.643Z,4.40
2023-04-30T08:09:49.839Z,4.60
2023-04-30T08:12:17.928Z,4.60
2023-04-30T08:14:44.968Z,5.30
2023-04-30T08:17:12.208Z,4.80
2023-04-30T08:19:39.272Z,4.70
2023-04-30T08:22:06.452Z,5.20
2023-04-30T08:24:33.590Z,5.40
2023-04-30T08:27:01.201Z,4.80
2023-04-30T08:29:28.892Z,4.50
2023-04-30T08:31:56.041Z,5.10
2023-04-30T08:34:23.288Z,4.40
2023-04-30T08:36:50.322Z,4.40
2023-04-30T08:39:17.358Z,4.60
2023-04-30T08:41:47.266Z,3.80
2023-04-30T08:44:14.508Z,3.70
2023-04-30T08:46:42.376Z,3.60
2023-04-30T08:49:09.506Z,3.00
2023-04-30T08:51:37.434Z,2.20
2023-04-30T08:54:04.607Z,3.00
2023-04-30T08:56:33.711Z,5.30
2023-04-30T08:59:00.836Z,2.90
2023-04-30T09:01:30.218Z,1.70
2023-04-30T09:03:58.033Z,1.80
2023-04-30T09:06:25.194Z,2.10
2023-04-30T09:08:53.434Z,1.70
2023-04-30T09:11:28.704Z,1.40
2023-04-30T09:13:58.168Z,1.20
2023-04-30T09:16:27.970Z,1.10
2023-04-30T09:18:56.828Z,0.80
2023-04-30T09:21:35.217Z,1.00
2023-04-30T09:24:04.707Z,0.40
2023-04-30T09:26:38.950Z,1.10
2023-04-30T09:29:10.108Z,0.70
2023-04-30T09:31:38.692Z,0.40
2023-04-30T09:34:06.853Z,0.40
2023-04-30T09:36:34.637Z,0.90
2023-04-30T09:39:15.844Z,0.70
2023-04-30T09:41:44.027Z,0.90
2023-04-30T09:44:28.588Z,0.70
2023-04-30T09:47:00.686Z,0.70
2023-04-30T09:49:28.257Z,1.20
2023-04-30T09:52:01.182Z,1.10
2023-04-30T09:54:31.031Z,1.10
2023-04-30T09:57:02.034Z,1.00
2023-04-30T09:59:32.000Z,0.80
2023-04-30T10:02:02.354Z,1.60
2023-04-30T10:04:33.557Z,2.10
2023-04-30T10:07:04.505Z,1.50
2023-04-30T10:09:40.110Z,1.10
2023-04-30T10:12:11.597Z,0.80
2023-04-30T10:14:39.543Z,0.80
2023-04-30T10:17:15.316Z,0.90
2023-04-30T10:19:49.678Z,1.00
2023-04-30T10:22:17.532Z,0.70
2023-04-30T10:24:45.637Z,0.90
2023-04-30T10:27:13.540Z,1.40
2023-04-30T10:29:40.680Z,0.90
2023-04-30T10:32:08.437Z,1.50
2023-04-30T10:34:46.999Z,0.70
2023-04-30T10:37:54.817Z,0.80
2023-04-30T10:40:21.904Z,1.10
2023-04-30T10:42:50.208Z,1.00
2023-04-30T10:45:17.584Z,1.20
2023-04-30T10:47:48.266Z,1.70
2023-04-30T10:50:15.444Z,1.30
2023-04-30T10:52:44.460Z,2.10
2023-04-30T10:55:11.856Z,1.10
2023-04-30T10:57:44.126Z,1.30
2023-04-30T11:02:47.823Z,0.70
2023-04-30T11:05:19.848Z,1.30
2023-04-30T11:07:59.535Z,1.50
2023-04-30T11:10:28.702Z,1.40
2023-04-30T11:12:56.336Z,1.10
2023-04-30T11:15:31.940Z,1.70
2023-04-30T11:17:59.879Z,2.20
2023-04-30T11:20:28.130Z,0.80
2023-04-30T11:23:22.198Z,0.90
2023-04-30T11:25:55.230Z,0.80
2023-04-30T11:28:27.074Z,1.20
2023-04-30T11:30:57.622Z,1.00
2023-04-30T11:33:33.000Z,1.10
2023-04-30T11:36:01.532Z,1.20
2023-04-30T11:38:36.131Z,0.90
2023-04-30T11:41:04.764Z,0.80
2023-04-30T11:43:33.741Z,0.80
2023-04-30T11:46:01.890Z,1.20
2023-04-30T11:48:37.579Z,0.60
2023-04-30T11:51:07.460Z,1.50
2023-04-30T11:53:34.574Z,0.70
2023-04-30T11:56:04.917Z,0.60
2023-04-30T11:58:39.322Z,0.60
2023-04-30T12:01:11.059Z,1.20
2023-04-30T12:03:46.526Z,1.00
2023-04-30T12:06:25.759Z,0.40
2023-04-30T12:08:55.267Z,0.50
2023-04-30T12:11:26.987Z,0.60
2023-04-30T12:13:55.729Z,0.70
2023-04-30T12:16:26.255Z,0.50
2023-04-30T12:18:53.466Z,1.00
2023-04-30T12:21:23.192Z,0.70
2023-04-30T12:23:50.851Z,1.60
2023-04-30T12:26:18.030Z,1.80
2023-04-30T12:28:49.391Z,1.00
2023-04-30T12:31:20.359Z,1.00
2023-04-30T12:33:55.232Z,0.50
2023-04-30T12:36:22.416Z,0.60
2023-04-30T12:38:49.479Z,0.70
2023-04-30T12:41:17.802Z,0.80
2023-04-30T12:43:44.894Z,1.60
2023-04-30T12:46:12.561Z,3.20
2023-04-30T12:48:45.931Z,0.80
2023-04-30T12:51:13.187Z,1.10
2023-04-30T12:53:47.254Z,1.20
2023-04-30T12:56:16.916Z,0.90
2023-04-30T12:58:51.372Z,0.70
2023-04-30T13:01:22.067Z,1.30
2023-04-30T13:03:49.556Z,11.00
2023-04-30T13:06:17.017Z,15.90
2023-04-30T13:11:17.081Z,1.00
2023-04-30T13:13:44.236Z,1.00
2023-04-30T13:16:11.319Z,0.70
2023-04-30T13:18:38.498Z,1.30
2023-04-30T13:21:05.661Z,0.80
2023-04-30T13:23:41.249Z,0.90
2023-04-30T13:26:16.738Z,0.90
2023-04-30T13:28:43.781Z,0.90
2023-04-30T13:31:11.099Z,0.80
2023-04-30T13:33:38.171Z,0.90
2023-04-30T13:36:05.398Z,1.00
2023-04-30T13:38:32.454Z,0.40
2023-04-30T13:40:59.500Z,1.00
2023-04-30T13:43:26.724Z,0.70
2023-04-30T13:45:53.839Z,0.40
2023-04-30T13:48:20.955Z,0.60
2023-04-30T13:50:47.974Z,1.10
2023-04-30T13:53:15.428Z,1.00
2023-04-30T13:55:42.490Z,0.70
2023-04-30T13:58:09.691Z,0.60
2023-04-30T14:00:37.044Z,0.70
2023-04-30T14:03:07.210Z,1.40
2023-04-30T14:05:35.913Z,0.80
2023-04-30T14:08:03.479Z,0.80
2023-04-30T14:10:30.537Z,0.80
2023-04-30T14:12:57.527Z,0.70
2023-04-30T14:15:25.002Z,0.70
2023-04-30T14:17:53.208Z,0.90
2023-04-30T14:20:20.463Z,1.40
2023-04-30T14:22:47.738Z,0.80
2023-04-30T14:25:14.841Z,0.50
2023-04-30T14:27:42.098Z,0.60
2023-04-30T14:30:10.378Z,0.60
2023-04-30T14:32:37.934Z,0.80
2023-04-30T14:35:05.629Z,0.70
2023-04-30T14:37:32.887Z,0.70
2023-04-30T14:40:02.156Z,0.60
2023-04-30T14:42:29.233Z,0.60
2023-04-30T14:44:56.284Z,1.20
2023-04-30T14:47:27.507Z,0.70
2023-04-30T14:49:55.078Z,0.90
2023-04-30T14:52:22.603Z,1.10
2023-04-30T14:54:49.850Z,0.90
2023-04-30T14:57:18.721Z,0.90
2023-04-30T14:59:45.877Z,1.20
2023-04-30T15:02:13.135Z,0.70
2023-04-30T15:04:45.665Z,0.90
2023-04-30T15:07:12.886Z,1.00
2023-04-30T15:09:39.978Z,0.90
2023-04-30T15:12:07.219Z,1.30
2023-04-30T15:14:34.269Z,0.70
2023-04-30T15:17:01.403Z,0.90
2023-04-30T15:19:29.682Z,0.70
2023-04-30T15:21:56.708Z,0.70
2023-04-30T15:24:24.123Z,3.30
2023-04-30T15:26:54.520Z,1.70
2023-04-30T15:29:21.608Z,1.30
2023-04-30T15:31:52.077Z,0.90
2023-04-30T15:34:21.519Z,1.00
2023-04-30T15:36:49.960Z,1.00
2023-04-30T15:39:18.006Z,1.30
2023-04-30T15:41:45.216Z,1.20
2023-04-30T15:44:12.269Z,0.90
2023-04-30T15:46:39.443Z,0.90
2023-04-30T15:49:06.591Z,0.90
2023-04-30T15:51:34.490Z,6.20
2023-04-30T15:54:01.580Z,2.50
2023-04-30T15:56:29.028Z,1.60
2023-04-30T15:58:56.163Z,2.60
2023-04-30T16:01:23.811Z,1.80
2023-04-30T16:03:51.273Z,1.10
2023-04-30T16:06:19.450Z,1.60
2023-04-30T16:08:46.984Z,1.30
2023-04-30T16:11:14.916Z,1.90
2023-04-30T16:13:42.173Z,1.60
2023-04-30T16:16:09.330Z,1.00
2023-04-30T16:18:36.645Z,1.70
2023-04-30T16:21:05.732Z,1.30
2023-04-30T16:23:32.805Z,1.10
2023-04-30T16:25:59.960Z,1.90
2023-04-30T16:28:28.703Z,1.60
2023-04-30T16:33:25.364Z,1.10
2023-04-30T16:35:52.671Z,1.60
2023-04-30T16:38:20.959Z,2.60
2023-04-30T16:40:48.833Z,1.60
2023-04-30T16:43:16.220Z,1.90
2023-04-30T16:45:43.373Z,1.60
2023-04-30T16:48:10.912Z,2.80
2023-04-30T16:50:38.092Z,1.70
2023-04-30T16:53:05.236Z,1.70
2023-04-30T16:55:32.869Z,2.30
2023-04-30T16:58:00.437Z,1.70
2023-04-30T17:00:28.035Z,2.70
2023-04-30T17:02:55.503Z,3.20
2023-04-30T17:05:22.928Z,2.60
2023-04-30T17:07:50.318Z,2.60
2023-04-30T17:10:19.669Z,2.90
2023-04-30T17:12:49.524Z,2.60
2023-04-30T17:15:18.675Z,3.10
2023-04-30T17:17:46.212Z,2.80
2023-04-30T17:20:13.516Z,2.90
2023-04-30T17:22:41.006Z,2.30
2023-04-30T17:25:09.459Z,2.20
2023-04-30T17:27:36.518Z,3.50
2023-04-30T17:30:07.524Z,3.90
2023-04-30T17:32:34.692Z,3.30
2023-04-30T17:35:03.007Z,4.30
2023-04-30T17:37:30.279Z,3.00
2023-04-30T17:39:58.174Z,3.50
2023-04-30T17:42:25.605Z,2.60
2023-04-30T17:44:52.911Z,3.20
2023-04-30T17:47:20.117Z,2.90
2023-04-30T17:49:48.166Z,4.60
2023-04-30T17:52:15.550Z,3.30
2023-04-30T17:54:43.069Z,3.00
2023-04-30T17:57:10.231Z,3.40
2023-04-30T17:59:39.593Z,2.60
2023-04-30T18:02:07.785Z,1.80
2023-04-30T18:04:35.222Z,2.70
2023-04-30T18:07:02.383Z,2.80
2023-04-30T18:09:30.698Z,3.00
2023-04-30T18:11:59.504Z,1.90
2023-04-30T18:14:27.448Z,2.40
2023-04-30T18:16:54.891Z,2.40
2023-04-30T18:19:22.214Z,2.50
2023-04-30T18:21:53.015Z,2.20
2023-04-30T18:24:21.192Z,2.00
2023-04-30T18:26:48.501Z,2.60
2023-04-30T18:29:17.621Z,2.60
2023-04-30T18:31:44.988Z,1.90
2023-04-30T18:34:13.354Z,1.50
2023-04-30T18:36:43.197Z,2.30
2023-04-30T18:39:12.797Z,2.30
2023-04-30T18:41:39.857Z,2.50
2023-04-30T18:44:10.012Z,2.50
2023-04-30T18:46:37.262Z,2.90
2023-04-30T18:49:05.706Z,2.30
2023-04-30T18:51:32.999Z,2.80
2023-04-30T18:54:00.327Z,3.20
2023-04-30T18:56:27.498Z,2.90
2023-04-30T18:58:55.102Z,2.90
2023-04-30T19:01:24.641Z,2.70
2023-04-30T19:03:51.742Z,3.10
2023-04-30T19:06:19.253Z,2.50
2023-04-30T19:08:47.592Z,2.10
2023-04-30T19:11:14.709Z,2.20
2023-04-30T19:13:41.804Z,2.80
2023-04-30T19:16:08.929Z,2.20
2023-04-30T19:18:36.791Z,3.40
2023-04-30T19:21:05.569Z,2.70
2023-04-30T19:23:32.653Z,4.40
2023-04-30T19:26:00.357Z,3.10
2023-04-30T19:28:27.968Z,3.20
2023-04-30T19:30:55.523Z,3.10
2023-04-30T19:33:23.784Z,3.00
2023-04-30T19:35:53.600Z,2.90
2023-04-30T19:38:21.682Z,2.90
2023-04-30T19:40:53.347Z,3.50
2023-04-30T19:43:24.619Z,4.20
2023-04-30T19:45:54.611Z,3.10
2023-04-30T19:48:23.280Z,3.00
2023-04-30T19:50:53.523Z,3.50
2023-04-30T19:53:21.736Z,3.60
2023-04-30T19:55:49.141Z,3.70
2023-04-30T19:58:16.511Z,4.20
2023-04-30T20:00:45.245Z,2.30
2023-04-30T20:03:14.642Z,3.10
2023-04-30T20:05:42.965Z,3.30
2023-04-30T20:08:10.579Z,3.70
2023-04-30T20:10:39.346Z,4.40
2023-04-30T20:13:07.423Z,2.90
2023-04-30T20:15:34.574Z,3.40
2023-04-30T20:18:02.027Z,3.50
2023-04-30T20:20:29.537Z,3.80
2023-04-30T20:22:57.093Z,3.50
2023-04-30T20:25:26.095Z,5.20
2023-04-30T20:27:53.166Z,4.10
2023-04-30T20:30:21.128Z,3.70
2023-04-30T20:32:48.383Z,3.50
2023-04-30T20:35:15.701Z,3.40
2023-04-30T20:37:43.027Z,3.70
2023-04-30T20:40:10.623Z,3.70
2023-04-30T20:42:38.919Z,3.00
2023-04-30T20:45:06.805Z,2.90
2023-04-30T20:47:33.897Z,3.00
2023-04-30T20:50:01.793Z,3.60
2023-04-30T20:52:28.838Z,3.30
2023-04-30T20:54:56.633Z,3.40
2023-04-30T20:57:23.779Z,3.10
2023-04-30T20:59:51.344Z,4.70
2023-04-30T21:02:18.897Z,4.40
2023-04-30T21:04:46.400Z,3.90
2023-04-30T21:07:13.427Z,3.90
2023-04-30T21:09:41.128Z,3.40
2023-04-30T21:12:08.146Z,3.70
2023-04-30T21:14:36.005Z,3.80
2023-04-30T21:17:03.325Z,3.90
2023-04-30T21:19:31.819Z,3.60
2023-04-30T21:21:58.893Z,4.20
2023-04-30T21:24:25.952Z,4.40
2023-04-30T21:26:54.488Z,4.20
2023-04-30T21:29:22.044Z,4.60
2023-04-30T21:31:49.135Z,4.80
2023-04-30T21:34:16.197Z,4.90
2023-04-30T21:36:43.278Z,4.90
2023-04-30T21:39:10.546Z,4.00
2023-04-30T21:41:37.688Z,4.40
2023-04-30T21:44:04.888Z,4.90
2023-04-30T21:46:32.313Z,4.40
2023-04-30T21:48:59.594Z,6.10
2023-04-30T21:51:29.089Z,4.40
2023-04-30T21:53:56.342Z,5.00
2023-04-30T21:56:23.514Z,3.90
2023-04-30T21:58:50.850Z,4.60
2023-04-30T22:01:18.612Z,3.80
2023-04-30T22:03:46.138Z,4.20
2023-04-30T22:06:13.325Z,5.10
2023-04-30T22:08:40.453Z,4.70
2023-04-30T22:11:07.595Z,5.10
2023-04-30T22:13:34.686Z,4.80
2023-04-30T22:16:02.270Z,5.30
2023-04-30T22:18:29.605Z,4.20
2023-04-30T22:20:56.817Z,6.00
2023-04-30T22:23:24.209Z,4.80
2023-04-30T22:25:51.378Z,5.10
2023-04-30T22:28:19.478Z,5.20
2023-04-30T22:30:46.968Z,4.60
2023-04-30T22:33:14.225Z,5.20
2023-04-30T22:35:41.457Z,6.30
2023-04-30T22:38:08.701Z,5.80
2023-04-30T22:40:39.801Z,5.20
2023-04-30T22:43:06.962Z,5.30
2023-04-30T22:45:37.506Z,5.80
2023-04-30T22:48:05.038Z,5.60
2023-04-30T22:50:32.320Z,5.60
2023-04-30T22:53:00.092Z,4.90
2023-04-30T22:55:27.936Z,6.70
2023-04-30T22:57:55.055Z,5.80
2023-04-30T23:00:24.154Z,6.10
2023-04-30T23:02:51.460Z,5.90
2023-04-30T23:05:19.067Z,6.50
2023-04-30T23:07:49.756Z,5.90
2023-04-30T23:10:17.402Z,5.30
2023-04-30T23:12:44.482Z,5.40
2023-04-30T23:15:12.476Z,5.50
2023-04-30T23:17:39.728Z,5.90
2023-04-30T23:20:08.041Z,5.10
2023-04-30T23:22:35.056Z,5.30
2023-04-30T23:25:02.064Z,4.80
2023-04-30T23:27:30.072Z,4.90
2023-04-30T23:29:57.637Z,4.50
2023-04-30T23:32:25.273Z,5.70
2023-04-30T23:34:52.431Z,4.60
2023-04-30T23:37:19.463Z,4.60
2023-04-30T23:39:46.493Z,5.00
2023-04-30T23:42:13.731Z,5.10
2023-04-30T23:44:40.920Z,4.90
2023-04-30T23:47:08.030Z,4.90
2023-04-30T23:49:35.042Z,4.30
2023-04-30T23:52:02.283Z,5.00
2023-04-30T23:54:30.288Z,4.40
2023-04-30T23:56:57.522Z,4.30
2023-04-30T23:59:25.816Z,4.50
